createdAt,value
2019-02-22T00:02:27.949Z,36.50
2019-02-22T00:04:57.309Z,44.17
2019-02-22T00:07:26.587Z,35.80
2019-02-22T00:09:56.011Z,39.93
2019-02-22T00:12:25.274Z,43.27
2019-02-22T00:14:54.529Z,42.67
2019-02-22T00:17:23.840Z,44.20
2019-02-22T00:19:53.126Z,44.17
2019-02-22T00:22:22.443Z,40.70
2019-02-22T00:24:51.803Z,38.20
2019-02-22T00:27:21.083Z,40.90
2019-02-22T00:29:50.469Z,36.80
2019-02-22T00:32:19.908Z,39.97
2019-02-22T00:34:49.552Z,47.37
2019-02-22T00:37:19.001Z,40.80
2019-02-22T00:39:48.326Z,43.57
2019-02-22T00:42:17.655Z,46.10
2019-02-22T00:44:47.005Z,39.93
2019-02-22T00:47:16.927Z,36.80
2019-02-22T00:49:46.176Z,35.30
2019-02-22T00:52:15.471Z,38.07
2019-02-22T00:54:44.821Z,41.60
2019-02-22T00:57:14.282Z,38.20
2019-02-22T00:59:43.569Z,38.27
2019-02-22T01:02:13.042Z,41.13
2019-02-22T01:04:42.286Z,41.37
2019-02-22T01:07:11.834Z,41.47
2019-02-22T01:09:43.486Z,39.57
2019-02-22T01:12:12.747Z,40.20
2019-02-22T01:14:42.011Z,39.43
2019-02-22T01:17:11.308Z,42.33
2019-02-22T01:19:40.581Z,38.00
2019-02-22T01:22:09.800Z,44.73
2019-02-22T01:24:39.083Z,42.33
2019-02-22T01:27:08.349Z,35.57
2019-02-22T01:29:37.590Z,40.77
2019-02-22T01:32:06.903Z,40.60
2019-02-22T01:34:36.172Z,41.10
2019-02-22T01:37:05.354Z,41.50
2019-02-22T01:39:34.633Z,38.87
2019-02-22T01:42:03.896Z,43.87
2019-02-22T01:44:33.073Z,47.07
2019-02-22T01:47:02.351Z,40.23
2019-02-22T01:49:32.103Z,40.23
2019-02-22T01:52:01.479Z,41.23
2019-02-22T01:54:30.790Z,39.07
2019-02-22T01:57:00.059Z,42.37
2019-02-22T01:59:29.337Z,37.53
2019-02-22T02:01:58.676Z,37.23
2019-02-22T02:04:27.938Z,45.00
2019-02-22T02:07:16.284Z,35.60
2019-02-22T02:09:45.579Z,37.83
2019-02-22T02:12:14.841Z,39.23
2019-02-22T02:14:44.120Z,33.23
2019-02-22T02:17:13.413Z,41.63
2019-02-22T02:19:42.769Z,37.47
2019-02-22T02:22:12.125Z,41.43
2019-02-22T02:24:41.363Z,42.13
2019-02-22T02:27:10.709Z,35.63
2019-02-22T02:29:39.913Z,38.10
2019-02-22T02:32:09.172Z,42.17
2019-02-22T02:34:38.626Z,41.37
2019-02-22T02:37:07.920Z,35.83
2019-02-22T02:39:37.175Z,39.70
2019-02-22T02:42:06.453Z,40.47
2019-02-22T02:44:35.825Z,42.27
2019-02-22T02:47:05.013Z,37.40
2019-02-22T02:49:34.277Z,36.07
2019-02-22T02:52:03.769Z,39.10
2019-02-22T02:54:33.075Z,39.60
2019-02-22T02:57:02.583Z,38.40
2019-02-22T02:59:31.857Z,44.30
2019-02-22T03:02:02.454Z,46.17
2019-02-22T03:04:31.842Z,39.00
2019-02-22T03:07:06.314Z,35.47
2019-02-22T03:09:35.730Z,39.13
2019-02-22T03:12:05.041Z,35.73
2019-02-22T03:14:34.239Z,38.97
2019-02-22T03:17:03.571Z,34.20
2019-02-22T03:19:32.894Z,34.60
2019-02-22T03:22:02.246Z,43.93
2019-02-22T03:24:31.579Z,38.23
2019-02-22T03:27:00.776Z,38.00
2019-02-22T03:29:30.091Z,42.93
2019-02-22T03:31:59.380Z,38.87
2019-02-22T03:34:28.573Z,35.63
2019-02-22T03:36:57.896Z,36.83
2019-02-22T03:39:27.127Z,34.10
2019-02-22T03:41:56.392Z,36.13
2019-02-22T03:44:25.730Z,36.33
2019-02-22T03:46:55.032Z,44.33
2019-02-22T03:49:24.304Z,37.83
2019-02-22T03:51:53.818Z,40.30
2019-02-22T03:54:23.064Z,39.10
2019-02-22T03:56:52.395Z,34.23
2019-02-22T03:59:21.693Z,33.17
2019-02-22T04:01:51.044Z,35.93
2019-02-22T04:04:20.516Z,43.30
2019-02-22T04:06:49.812Z,39.07
2019-02-22T04:09:19.574Z,36.60
2019-02-22T04:11:48.943Z,38.93
2019-02-22T04:14:18.193Z,43.53
2019-02-22T04:16:47.505Z,38.10
2019-02-22T04:19:16.750Z,45.00
2019-02-22T04:21:46.002Z,40.53
2019-02-22T04:24:15.312Z,37.73
2019-02-22T04:26:44.587Z,39.23
2019-02-22T04:29:13.742Z,38.17
2019-02-22T04:31:43.030Z,38.33
2019-02-22T04:34:12.298Z,36.23
2019-02-22T04:36:41.539Z,38.83
2019-02-22T04:39:10.883Z,35.17
2019-02-22T04:41:40.131Z,41.10
2019-02-22T04:44:09.394Z,37.73
2019-02-22T04:46:38.589Z,37.10
2019-02-22T04:49:07.973Z,36.13
2019-02-22T04:51:37.227Z,34.93
2019-02-22T04:54:06.506Z,38.40
2019-02-22T04:56:35.927Z,42.97
2019-02-22T04:59:05.175Z,37.63
2019-02-22T05:01:34.442Z,37.87
2019-02-22T05:04:03.659Z,44.03
2019-02-22T05:06:32.938Z,40.27
2019-02-22T05:09:02.218Z,42.33
2019-02-22T05:11:31.501Z,39.27
2019-02-22T05:14:00.769Z,38.73
2019-02-22T05:16:30.092Z,38.17
2019-02-22T05:18:59.353Z,45.23
2019-02-22T05:21:28.610Z,41.47
2019-02-22T05:23:57.954Z,39.63
2019-02-22T05:26:27.314Z,48.20
2019-02-22T05:28:56.626Z,49.23
2019-02-22T05:31:26.550Z,41.83
2019-02-22T05:33:55.840Z,40.93
2019-02-22T05:36:25.194Z,46.77
2019-02-22T05:38:54.413Z,42.53
2019-02-22T05:41:24.060Z,41.37
2019-02-22T05:43:53.467Z,45.43
2019-02-22T05:46:22.798Z,42.93
2019-02-22T05:48:52.064Z,47.90
2019-02-22T05:51:40.613Z,43.40
2019-02-22T05:54:09.992Z,44.60
2019-02-22T05:56:39.350Z,43.67
2019-02-22T05:59:08.567Z,39.17
2019-02-22T06:01:38.011Z,40.93
2019-02-22T06:04:07.269Z,48.13
2019-02-22T06:06:36.568Z,45.03
2019-02-22T06:09:06.914Z,42.73
2019-02-22T06:11:36.183Z,41.10
2019-02-22T06:14:24.527Z,45.93
2019-02-22T06:16:53.901Z,41.03
2019-02-22T06:19:23.171Z,45.60
2019-02-22T06:21:52.501Z,48.27
2019-02-22T06:24:21.762Z,47.60
2019-02-22T06:26:50.986Z,40.13
2019-02-22T06:29:20.288Z,42.43
2019-02-22T06:31:49.570Z,36.97
2019-02-22T06:34:20.885Z,42.00
2019-02-22T06:37:01.151Z,44.27
2019-02-22T06:39:21.507Z,38.90
2019-02-22T06:41:50.759Z,40.33
2019-02-22T06:44:23.100Z,38.00
2019-02-22T06:46:52.374Z,39.70
2019-02-22T06:49:21.663Z,41.30
2019-02-22T06:51:50.938Z,40.20
2019-02-22T06:54:20.195Z,39.37
2019-02-22T06:56:49.497Z,47.93
2019-02-22T06:59:19.141Z,42.80
2019-02-22T07:01:50.032Z,45.63
2019-02-22T07:04:19.512Z,39.80
2019-02-22T07:06:48.809Z,44.47
2019-02-22T07:09:18.072Z,38.87
2019-02-22T07:11:54.229Z,37.43
2019-02-22T07:14:23.615Z,34.67
2019-02-22T07:16:53.074Z,39.97
2019-02-22T07:19:22.427Z,40.80
2019-02-22T07:21:53.017Z,41.80
2019-02-22T07:24:22.675Z,39.43
2019-02-22T07:26:52.092Z,39.23
2019-02-22T07:29:22.267Z,39.50
2019-02-22T07:31:52.156Z,46.40
2019-02-22T07:34:21.467Z,36.93
2019-02-22T07:37:09.878Z,38.53
2019-02-22T07:39:39.117Z,37.80
2019-02-22T07:42:08.364Z,37.00
2019-02-22T07:44:37.674Z,35.93
2019-02-22T07:47:07.011Z,37.17
2019-02-22T07:49:36.356Z,41.07
2019-02-22T07:52:05.687Z,38.33
2019-02-22T07:54:34.999Z,35.33
2019-02-22T07:57:04.252Z,37.50
2019-02-22T07:59:33.603Z,39.67
2019-02-22T08:02:02.960Z,36.13
2019-02-22T08:04:32.334Z,39.97
2019-02-22T08:07:01.669Z,38.13
2019-02-22T08:09:31.151Z,45.90
2019-02-22T08:12:00.480Z,34.60
2019-02-22T08:14:29.761Z,33.90
2019-02-22T08:16:59.105Z,38.00
2019-02-22T08:19:28.381Z,38.63
2019-02-22T08:21:57.980Z,41.17
2019-02-22T08:24:27.432Z,43.60
2019-02-22T08:26:56.782Z,42.83
2019-02-22T08:29:26.174Z,40.10
2019-02-22T08:31:55.564Z,41.20
2019-02-22T08:34:24.836Z,37.43
2019-02-22T08:36:54.254Z,43.03
2019-02-22T08:39:23.672Z,41.20
2019-02-22T08:41:52.961Z,44.43
2019-02-22T08:44:22.348Z,44.90
2019-02-22T08:46:51.763Z,41.27
2019-02-22T08:49:21.169Z,38.47
2019-02-22T08:51:50.821Z,42.23
2019-02-22T08:54:20.224Z,45.50
2019-02-22T08:56:49.558Z,40.17
2019-02-22T08:59:18.859Z,40.90
2019-02-22T09:01:48.212Z,41.80
2019-02-22T09:04:17.504Z,39.93
2019-02-22T09:06:47.160Z,42.73
2019-02-22T09:09:16.656Z,38.60
2019-02-22T09:11:46.160Z,36.70
2019-02-22T09:14:15.498Z,40.03
2019-02-22T09:16:44.964Z,35.03
2019-02-22T09:19:14.236Z,38.20
2019-02-22T09:21:43.630Z,38.53
2019-02-22T09:24:12.925Z,38.70
2019-02-22T09:26:42.279Z,33.70
2019-02-22T09:29:11.708Z,40.87
2019-02-22T09:31:40.974Z,37.20
2019-02-22T09:34:12.034Z,36.87
2019-02-22T09:36:41.303Z,37.83
2019-02-22T09:39:10.655Z,35.60
2019-02-22T09:41:39.941Z,40.90
2019-02-22T09:44:09.236Z,38.57
2019-02-22T09:46:38.574Z,38.13
2019-02-22T09:49:07.844Z,34.80
2019-02-22T09:51:37.178Z,32.67
2019-02-22T09:54:06.487Z,33.33
2019-02-22T09:56:35.741Z,34.87
2019-02-22T09:59:05.022Z,33.93
2019-02-22T10:01:34.326Z,30.97
2019-02-22T10:04:03.573Z,32.33
2019-02-22T10:06:32.839Z,36.63
2019-02-22T10:09:04.020Z,27.93
2019-02-22T10:11:33.198Z,30.17
2019-02-22T10:14:06.797Z,26.67
2019-02-22T10:16:33.556Z,26.20
2019-02-22T10:19:02.901Z,24.23
2019-02-22T10:21:32.491Z,26.13
2019-02-22T10:24:01.827Z,25.10
2019-02-22T10:26:31.181Z,25.10
2019-02-22T10:29:00.884Z,24.43
2019-02-22T10:31:30.169Z,21.63
2019-02-22T10:33:59.541Z,21.67
2019-02-22T10:36:29.069Z,22.43
2019-02-22T10:38:58.385Z,22.97
2019-02-22T10:41:27.722Z,21.77
2019-02-22T10:43:57.005Z,22.83
2019-02-22T10:46:26.343Z,22.00
2019-02-22T10:48:55.620Z,21.30
2019-02-22T10:51:25.543Z,19.23
2019-02-22T10:53:54.720Z,21.73
2019-02-22T10:56:24.119Z,20.83
2019-02-22T10:58:53.393Z,20.80
2019-02-22T11:01:22.968Z,18.63
2019-02-22T11:03:52.274Z,17.30
2019-02-22T11:06:21.846Z,15.10
2019-02-22T11:08:51.479Z,17.17
2019-02-22T11:11:21.046Z,13.70
2019-02-22T11:13:50.783Z,9.53
2019-02-22T11:16:20.163Z,1.40
2019-02-22T11:18:49.685Z,5.03
2019-02-22T11:21:19.176Z,2.73
2019-02-22T11:23:49.012Z,6.20
2019-02-22T11:26:18.518Z,12.43
2019-02-22T11:28:47.830Z,17.80
2019-02-22T11:31:17.416Z,12.37
2019-02-22T11:33:47.178Z,13.73
2019-02-22T11:36:16.477Z,12.30
2019-02-22T11:38:46.142Z,15.90
2019-02-22T11:41:15.554Z,17.00
2019-02-22T11:43:45.562Z,15.57
2019-02-22T11:46:15.355Z,13.80
2019-02-22T11:48:44.827Z,11.23
2019-02-22T11:51:14.488Z,10.47
2019-02-22T11:53:43.887Z,9.10
2019-02-22T11:56:13.200Z,6.57
2019-02-22T11:58:42.466Z,6.90
2019-02-22T12:01:12.535Z,5.10
2019-02-22T12:03:42.022Z,3.40
2019-02-22T12:06:11.375Z,3.50
2019-02-22T12:08:40.658Z,3.63
2019-02-22T12:11:10.098Z,3.37
2019-02-22T12:13:39.627Z,2.23
2019-02-22T12:16:08.922Z,1.27
2019-02-22T12:18:38.271Z,2.00
2019-02-22T12:21:07.755Z,2.07
2019-02-22T12:23:37.250Z,1.50
2019-02-22T12:26:06.490Z,1.80
2019-02-22T12:28:35.809Z,0.67
2019-02-22T12:31:05.664Z,2.00
2019-02-22T12:33:35.027Z,2.43
2019-02-22T12:36:04.434Z,2.30
2019-02-22T12:38:34.155Z,4.47
2019-02-22T12:41:03.503Z,2.93
2019-02-22T12:43:33.261Z,4.63
2019-02-22T12:46:02.743Z,5.30
2019-02-22T12:48:32.297Z,5.23
2019-02-22T12:51:01.739Z,5.93
2019-02-22T12:53:31.229Z,5.43
2019-02-22T12:56:00.507Z,4.50
2019-02-22T12:58:32.714Z,5.50
2019-02-22T13:01:01.978Z,7.07
2019-02-22T13:03:31.829Z,11.10
2019-02-22T13:06:01.203Z,14.37
2019-02-22T13:08:30.494Z,14.33
2019-02-22T13:11:00.337Z,16.10
2019-02-22T13:13:29.608Z,15.40
2019-02-22T13:15:58.893Z,14.10
2019-02-22T13:18:28.192Z,15.87
2019-02-22T13:20:57.517Z,14.90
2019-02-22T13:23:27.013Z,15.63
2019-02-22T13:25:56.314Z,15.27
2019-02-22T13:28:25.725Z,17.30
2019-02-22T13:30:55.079Z,16.23
2019-02-22T13:33:24.829Z,17.20
2019-02-22T13:35:55.606Z,14.30
2019-02-22T13:38:26.382Z,15.67
2019-02-22T13:40:55.705Z,16.53
2019-02-22T13:43:25.151Z,16.87
2019-02-22T13:45:54.446Z,17.17
2019-02-22T13:48:23.914Z,18.97
2019-02-22T13:50:53.311Z,20.03
2019-02-22T13:53:22.614Z,18.53
2019-02-22T13:55:51.991Z,19.93
2019-02-22T13:58:21.251Z,19.07
2019-02-22T14:00:51.073Z,22.77
2019-02-22T14:03:20.577Z,19.47
2019-02-22T14:05:49.867Z,22.07
2019-02-22T14:08:19.249Z,20.63
2019-02-22T14:10:48.775Z,21.37
2019-02-22T14:13:18.061Z,19.63
2019-02-22T14:15:47.359Z,21.30
2019-02-22T14:18:16.802Z,21.70
2019-02-22T14:20:46.267Z,22.40
2019-02-22T14:23:15.750Z,19.10
2019-02-22T14:25:45.212Z,22.27
2019-02-22T14:28:14.642Z,23.30
2019-02-22T14:30:44.148Z,23.97
2019-02-22T14:33:13.654Z,18.87
2019-02-22T14:35:42.929Z,22.00
2019-02-22T14:38:13.417Z,23.37
2019-02-22T14:40:42.723Z,22.47
2019-02-22T14:43:16.695Z,25.50
2019-02-22T14:45:50.475Z,22.47
2019-02-22T14:48:14.553Z,22.03
2019-02-22T14:50:46.498Z,20.77
2019-02-22T14:53:19.597Z,23.93
2019-02-22T14:55:46.929Z,19.67
2019-02-22T14:58:16.277Z,19.07
2019-02-22T15:00:45.831Z,19.13
2019-02-22T15:03:15.308Z,16.97
2019-02-22T15:05:44.674Z,18.77
2019-02-22T15:08:13.981Z,18.80
2019-02-22T15:10:44.403Z,17.27
2019-02-22T15:13:16.732Z,17.57
2019-02-22T15:16:01.019Z,16.57
2019-02-22T15:18:29.255Z,16.97
2019-02-22T15:20:58.603Z,18.47
2019-02-22T15:23:27.991Z,18.73
2019-02-22T15:25:57.327Z,19.23
2019-02-22T15:28:26.725Z,16.70
2019-02-22T15:30:57.382Z,16.80
2019-02-22T15:33:26.723Z,19.43
2019-02-22T15:35:56.015Z,17.50
2019-02-22T15:38:25.418Z,14.20
2019-02-22T15:40:54.714Z,14.60
2019-02-22T15:43:24.089Z,13.27
2019-02-22T15:45:53.505Z,14.83
2019-02-22T15:48:22.798Z,14.40
2019-02-22T15:50:52.107Z,13.93
2019-02-22T15:53:21.714Z,13.60
2019-02-22T15:55:51.011Z,14.50
2019-02-22T15:58:20.322Z,17.70
2019-02-22T16:00:49.615Z,13.73
2019-02-22T16:03:18.925Z,15.20
2019-02-22T16:05:48.307Z,13.90
2019-02-22T16:08:17.679Z,10.57
2019-02-22T16:10:47.080Z,11.97
2019-02-22T16:13:17.543Z,12.10
2019-02-22T16:15:47.165Z,13.40
2019-02-22T16:18:16.959Z,12.17
2019-02-22T16:20:46.301Z,13.80
2019-02-22T16:23:15.656Z,12.00
2019-02-22T16:25:44.910Z,13.07
2019-02-22T16:28:15.841Z,11.90
2019-02-22T16:30:45.866Z,14.77
2019-02-22T16:33:15.167Z,12.60
2019-02-22T16:35:44.553Z,15.80
2019-02-22T16:38:13.898Z,13.77
2019-02-22T16:40:43.196Z,14.53
2019-02-22T16:43:12.611Z,13.93
2019-02-22T16:45:42.013Z,13.67
2019-02-22T16:48:11.489Z,14.23
2019-02-22T16:50:40.825Z,15.17
2019-02-22T16:53:10.134Z,17.83
2019-02-22T16:55:39.511Z,16.03
2019-02-22T16:58:08.862Z,16.23
2019-02-22T17:00:38.599Z,15.10
2019-02-22T17:03:07.980Z,15.57
2019-02-22T17:05:37.425Z,15.60
2019-02-22T17:08:06.876Z,15.10
2019-02-22T17:10:36.173Z,17.17
2019-02-22T17:13:05.653Z,14.87
2019-02-22T17:15:35.061Z,17.63
2019-02-22T17:18:05.279Z,12.90
2019-02-22T17:20:35.099Z,20.33
2019-02-22T17:23:04.447Z,17.60
2019-02-22T17:25:34.097Z,16.07
2019-02-22T17:28:03.708Z,14.43
2019-02-22T17:30:33.045Z,14.73
2019-02-22T17:33:02.407Z,13.07
2019-02-22T17:35:31.840Z,13.70
2019-02-22T17:38:01.168Z,16.55
2019-02-22T17:40:30.843Z,13.07
2019-02-22T17:43:00.260Z,14.60
2019-02-22T17:45:29.666Z,13.63
2019-02-22T17:47:59.013Z,16.57
2019-02-22T17:50:28.570Z,18.83
2019-02-22T17:52:57.886Z,17.40
2019-02-22T17:55:27.085Z,18.43
2019-02-22T17:57:56.407Z,16.07
2019-02-22T18:00:26.479Z,20.73
2019-02-22T18:02:56.093Z,16.30
2019-02-22T18:05:25.457Z,16.43
2019-02-22T18:07:54.800Z,29.43
2019-02-22T18:10:24.170Z,17.33
2019-02-22T18:12:53.815Z,17.53
2019-02-22T18:15:23.170Z,14.50
2019-02-22T18:17:52.893Z,17.83
2019-02-22T18:20:22.813Z,15.17
2019-02-22T18:22:52.117Z,14.70
2019-02-22T18:25:21.394Z,13.67
2019-02-22T18:27:50.743Z,15.80
2019-02-22T18:30:20.044Z,14.57
2019-02-22T18:32:49.332Z,15.90
2019-02-22T18:35:18.891Z,15.60
2019-02-22T18:37:48.339Z,15.23
2019-02-22T18:40:17.962Z,15.70
2019-02-22T18:42:47.390Z,16.17
2019-02-22T18:45:16.847Z,15.57
2019-02-22T18:50:36.044Z,24.30
2019-02-22T18:53:05.595Z,15.90
2019-02-22T18:55:35.030Z,15.60
2019-02-22T18:58:04.646Z,12.53
2019-02-22T19:00:34.005Z,14.00
2019-02-22T19:03:03.450Z,12.13
2019-02-22T19:05:32.903Z,13.20
2019-02-22T19:08:02.604Z,12.87
2019-02-22T19:10:32.026Z,13.17
2019-02-22T19:13:01.342Z,11.77
2019-02-22T19:15:30.619Z,13.60
2019-02-22T19:17:59.955Z,14.03
2019-02-22T19:20:29.297Z,12.50
2019-02-22T19:22:58.766Z,13.53
2019-02-22T19:25:28.058Z,14.37
2019-02-22T19:27:57.431Z,13.13
2019-02-22T19:30:26.709Z,16.70
2019-02-22T19:32:56.523Z,21.33
2019-02-22T19:35:26.006Z,16.93
2019-02-22T19:37:58.107Z,65.60
2019-02-22T19:40:28.042Z,59.63
2019-02-22T19:42:57.935Z,32.20
2019-02-22T19:45:27.297Z,32.53
2019-02-22T19:47:56.539Z,29.47
2019-02-22T19:50:26.042Z,24.30
2019-02-22T19:52:55.543Z,25.90
2019-02-22T19:55:24.867Z,27.57
2019-02-22T19:57:54.577Z,27.13
2019-02-22T20:00:23.840Z,23.50
2019-02-22T20:02:53.210Z,26.27
2019-02-22T20:05:22.582Z,36.20
2019-02-22T20:07:52.191Z,38.70
2019-02-22T20:10:21.615Z,37.20
2019-02-22T20:12:51.207Z,38.27
2019-02-22T20:15:20.641Z,53.80
2019-02-22T20:17:54.493Z,48.63
2019-02-22T20:20:21.356Z,29.30
2019-02-22T20:22:50.741Z,30.67
2019-02-22T20:25:20.087Z,46.20
2019-02-22T20:27:49.485Z,61.93
2019-02-22T20:30:19.068Z,45.20
2019-02-22T20:32:48.485Z,52.93
2019-02-22T20:35:19.682Z,39.70
2019-02-22T20:37:52.538Z,37.77
2019-02-22T20:40:20.124Z,36.53
2019-02-22T20:42:49.528Z,32.83
2019-02-22T20:45:18.883Z,32.57
2019-02-22T20:47:48.454Z,37.83
2019-02-22T20:50:17.865Z,39.53
2019-02-22T20:52:47.211Z,40.27
2019-02-22T20:55:16.491Z,41.13
2019-02-22T20:57:45.790Z,44.17
2019-02-22T21:00:17.402Z,34.83
2019-02-22T21:02:46.802Z,36.63
2019-02-22T21:05:16.362Z,34.50
2019-02-22T21:07:45.662Z,38.67
2019-02-22T21:10:16.490Z,37.33
2019-02-22T21:12:45.795Z,42.00
2019-02-22T21:15:15.088Z,37.40
2019-02-22T21:17:44.386Z,37.97
2019-02-22T21:20:14.383Z,37.13
2019-02-22T21:22:43.724Z,34.80
2019-02-22T21:25:13.090Z,33.30
2019-02-22T21:28:01.459Z,39.77
2019-02-22T21:30:30.943Z,37.53
2019-02-22T21:33:19.341Z,37.77
2019-02-22T21:35:49.054Z,40.50
2019-02-22T21:38:19.351Z,36.10
2019-02-22T21:40:48.935Z,34.23
2019-02-22T21:43:18.756Z,39.20
2019-02-22T21:45:48.135Z,36.03
2019-02-22T21:48:27.189Z,35.47
2019-02-22T21:50:48.900Z,37.03
2019-02-22T21:53:18.644Z,34.57
2019-02-22T21:55:48.150Z,31.77
2019-02-22T21:58:17.583Z,37.03
2019-02-22T22:00:47.063Z,34.73
2019-02-22T22:03:16.442Z,35.27
2019-02-22T22:05:45.746Z,38.10
2019-02-22T22:08:15.165Z,37.00
2019-02-22T22:10:44.565Z,36.17
2019-02-22T22:13:14.269Z,39.57
2019-02-22T22:15:43.741Z,40.87
2019-02-22T22:18:13.078Z,33.73
2019-02-22T22:20:42.511Z,32.80
2019-02-22T22:23:11.946Z,32.67
2019-02-22T22:25:41.470Z,33.23
2019-02-22T22:28:11.116Z,35.03
2019-02-22T22:30:59.514Z,32.13
2019-02-22T22:33:29.359Z,33.27
2019-02-22T22:35:58.860Z,32.67
2019-02-22T22:38:28.166Z,32.80
2019-02-22T22:40:58.037Z,33.97
2019-02-22T22:43:27.408Z,33.90
2019-02-22T22:45:56.718Z,27.60
2019-02-22T22:48:26.030Z,32.90
2019-02-22T22:50:55.342Z,34.23
2019-02-22T22:53:24.999Z,31.87
2019-02-22T22:55:54.429Z,32.23
2019-02-22T22:58:23.866Z,31.60
2019-02-22T23:01:15.374Z,36.27
2019-02-22T23:03:44.833Z,35.47
2019-02-22T23:06:15.355Z,31.53
2019-02-22T23:08:44.786Z,31.13
2019-02-22T23:11:14.162Z,33.60
2019-02-22T23:13:43.458Z,31.63
2019-02-22T23:16:12.948Z,30.27
2019-02-22T23:18:42.175Z,33.67
2019-02-22T23:21:11.714Z,35.60
2019-02-22T23:23:40.986Z,33.80
2019-02-22T23:26:10.316Z,31.43
2019-02-22T23:28:39.793Z,32.47
2019-02-22T23:31:09.004Z,31.50
2019-02-22T23:33:38.286Z,32.17
2019-02-22T23:36:07.573Z,30.97
2019-02-22T23:38:37.071Z,32.20
2019-02-22T23:41:06.394Z,31.17
2019-02-22T23:43:35.926Z,31.60
2019-02-22T23:46:05.453Z,30.50
2019-02-22T23:48:34.772Z,34.07
2019-02-22T23:51:04.074Z,30.60
2019-02-22T23:53:33.387Z,32.97
2019-02-22T23:56:02.726Z,31.37
2019-02-22T23:58:32.031Z,32.23
